createdAt,value
2023-01-12T00:02:14.490Z,1.90
2023-01-12T00:04:41.565Z,1.80
2023-01-12T00:07:11.153Z,1.95
2023-01-12T00:09:38.958Z,2.00
2023-01-12T00:12:09.712Z,2.08
2023-01-12T00:14:38.247Z,2.10
2023-01-12T00:17:06.469Z,2.00
2023-01-12T00:19:34.179Z,1.48
2023-01-12T00:22:03.536Z,1.77
2023-01-12T00:24:39.060Z,2.10
2023-01-12T00:27:14.545Z,1.60
2023-01-12T00:29:42.004Z,1.52
2023-01-12T00:32:15.008Z,1.20
2023-01-12T00:34:42.720Z,2.08
2023-01-12T00:37:10.249Z,2.55
2023-01-12T00:39:42.731Z,1.92
2023-01-12T00:42:32.171Z,1.88
2023-01-12T00:45:17.497Z,1.88
2023-01-12T00:47:44.439Z,1.52
2023-01-12T00:50:11.337Z,1.67
2023-01-12T00:52:38.421Z,2.30
2023-01-12T00:55:05.773Z,1.65
2023-01-12T00:57:32.743Z,2.05
2023-01-12T01:00:00.332Z,1.85
2023-01-12T01:02:28.728Z,1.35
2023-01-12T01:04:56.753Z,2.67
2023-01-12T01:07:23.783Z,1.42
2023-01-12T01:09:51.303Z,1.17
2023-01-12T01:12:18.732Z,1.50
2023-01-12T01:14:47.983Z,1.50
2023-01-12T01:17:15.331Z,1.70
2023-01-12T01:19:43.567Z,1.65
2023-01-12T01:22:12.468Z,2.05
2023-01-12T01:24:40.247Z,1.40
2023-01-12T01:27:07.331Z,1.38
2023-01-12T01:29:34.294Z,1.00
2023-01-12T01:32:01.235Z,1.70
2023-01-12T01:34:28.152Z,2.40
2023-01-12T01:36:55.026Z,1.10
2023-01-12T01:39:22.188Z,1.48
2023-01-12T01:41:49.259Z,1.55
2023-01-12T01:44:31.629Z,1.98
2023-01-12T01:47:14.889Z,1.60
2023-01-12T01:49:52.703Z,1.10
2023-01-12T01:52:31.125Z,1.77
2023-01-12T01:55:20.237Z,1.60
2023-01-12T01:57:57.504Z,1.23
2023-01-12T02:00:26.073Z,1.25
2023-01-12T02:02:55.155Z,1.30
2023-01-12T02:05:26.990Z,1.30
2023-01-12T02:07:54.853Z,1.50
2023-01-12T02:10:22.144Z,1.08
2023-01-12T02:13:09.294Z,1.17
2023-01-12T02:16:20.549Z,1.35
2023-01-12T02:19:29.061Z,1.10
2023-01-12T02:22:10.991Z,0.90
2023-01-12T02:25:18.822Z,1.20
2023-01-12T02:28:22.668Z,1.20
2023-01-12T02:31:23.299Z,1.23
2023-01-12T02:34:37.163Z,1.30
2023-01-12T02:37:41.720Z,0.90
2023-01-12T02:40:30.793Z,1.10
2023-01-12T02:43:25.754Z,1.55
2023-01-12T02:46:22.354Z,1.02
2023-01-12T02:49:20.068Z,1.10
2023-01-12T02:51:56.244Z,1.00
2023-01-12T02:54:26.217Z,1.13
2023-01-12T02:57:00.606Z,0.80
2023-01-12T02:59:37.187Z,1.10
2023-01-12T03:02:18.491Z,1.20
2023-01-12T03:04:45.519Z,1.35
2023-01-12T03:08:01.627Z,1.20
2023-01-12T03:10:47.618Z,0.90
2023-01-12T03:13:17.976Z,1.52
2023-01-12T03:15:54.906Z,1.35
2023-01-12T03:18:56.377Z,1.35
2023-01-12T03:21:32.380Z,1.15
2023-01-12T03:24:27.785Z,0.90
2023-01-12T03:27:05.299Z,1.20
2023-01-12T03:29:39.696Z,1.40
2023-01-12T03:32:07.272Z,1.33
2023-01-12T03:34:37.211Z,1.08
2023-01-12T03:37:24.743Z,1.40
2023-01-12T03:40:25.571Z,1.65
2023-01-12T03:43:36.739Z,1.40
2023-01-12T03:46:41.909Z,1.20
2023-01-12T03:49:40.117Z,1.33
2023-01-12T03:52:09.862Z,1.25
2023-01-12T03:54:40.559Z,1.33
2023-01-12T03:57:09.605Z,1.20
2023-01-12T03:59:36.490Z,1.42
2023-01-12T04:02:04.003Z,1.00
2023-01-12T04:04:30.904Z,1.08
2023-01-12T04:06:59.868Z,1.02
2023-01-12T04:09:28.591Z,1.20
2023-01-12T04:12:10.427Z,0.90
2023-01-12T04:14:46.121Z,0.90
2023-01-12T04:17:15.185Z,0.88
2023-01-12T04:19:42.510Z,1.73
2023-01-12T04:22:34.514Z,0.60
2023-01-12T04:25:01.624Z,1.00
2023-01-12T04:27:28.891Z,1.00
2023-01-12T04:29:56.303Z,1.05
2023-01-12T04:32:23.248Z,1.30
2023-01-12T04:34:50.160Z,1.00
2023-01-12T04:37:17.027Z,1.10
2023-01-12T04:39:43.937Z,1.10
2023-01-12T04:42:30.772Z,1.02
2023-01-12T04:44:57.748Z,1.15
2023-01-12T04:47:24.712Z,1.95
2023-01-12T04:49:51.795Z,1.40
2023-01-12T04:52:18.718Z,1.42
2023-01-12T04:54:45.596Z,1.25
2023-01-12T04:57:12.602Z,0.80
2023-01-12T04:59:39.511Z,1.00
2023-01-12T05:02:06.653Z,1.23
2023-01-12T05:04:33.544Z,1.02
2023-01-12T05:07:00.487Z,0.90
2023-01-12T05:09:45.729Z,1.15
2023-01-12T05:12:12.728Z,1.35
2023-01-12T05:14:39.608Z,1.15
2023-01-12T05:17:06.503Z,1.08
2023-01-12T05:19:33.419Z,1.60
2023-01-12T05:22:00.312Z,1.20
2023-01-12T05:24:27.191Z,1.10
2023-01-12T05:26:54.478Z,1.40
2023-01-12T05:29:21.329Z,0.98
2023-01-12T05:31:48.361Z,1.27
2023-01-12T05:34:18.251Z,1.30
2023-01-12T05:36:48.595Z,1.05
2023-01-12T05:39:15.923Z,1.48
2023-01-12T05:42:02.820Z,0.85
2023-01-12T05:44:29.721Z,1.10
2023-01-12T05:46:56.625Z,0.75
2023-01-12T05:49:23.535Z,1.10
2023-01-12T05:51:50.421Z,1.00
2023-01-12T05:54:17.384Z,0.73
2023-01-12T05:56:44.329Z,1.15
2023-01-12T05:59:12.184Z,1.27
2023-01-12T06:01:40.750Z,1.45
2023-01-12T06:04:07.811Z,1.35
2023-01-12T06:06:34.810Z,1.17
2023-01-12T06:09:03.046Z,1.42
2023-01-12T06:11:48.500Z,1.35
2023-01-12T06:14:16.571Z,1.65
2023-01-12T06:16:44.016Z,1.23
2023-01-12T06:19:12.918Z,1.23
2023-01-12T06:21:40.923Z,1.52
2023-01-12T06:24:08.992Z,1.60
2023-01-12T06:26:36.129Z,1.85
2023-01-12T06:29:05.432Z,1.20
2023-01-12T06:31:35.553Z,1.55
2023-01-12T06:34:03.116Z,1.50
2023-01-12T06:36:29.997Z,1.02
2023-01-12T06:38:56.878Z,1.38
2023-01-12T06:41:46.021Z,1.10
2023-01-12T06:44:12.928Z,1.55
2023-01-12T06:46:40.047Z,1.20
2023-01-12T06:49:07.210Z,1.50
2023-01-12T06:51:34.257Z,1.23
2023-01-12T06:54:01.482Z,1.13
2023-01-12T06:56:28.431Z,1.55
2023-01-12T06:58:55.373Z,1.83
2023-01-12T07:01:22.520Z,1.75
2023-01-12T07:03:49.416Z,1.40
2023-01-12T07:06:16.781Z,1.38
2023-01-12T07:08:44.260Z,1.48
2023-01-12T07:11:15.195Z,1.23
2023-01-12T07:13:42.194Z,1.70
2023-01-12T07:16:09.452Z,1.17
2023-01-12T07:18:36.593Z,1.48
2023-01-12T07:21:09.716Z,2.45
2023-01-12T07:23:42.106Z,1.00
2023-01-12T07:26:10.931Z,1.33
2023-01-12T07:28:38.519Z,1.13
2023-01-12T07:31:07.586Z,1.20
2023-01-12T07:33:36.651Z,1.45
2023-01-12T07:36:04.550Z,1.42
2023-01-12T07:38:31.893Z,2.30
2023-01-12T07:41:01.471Z,1.23
2023-01-12T07:43:29.050Z,1.20
2023-01-12T07:45:58.118Z,1.60
2023-01-12T07:48:26.736Z,1.30
2023-01-12T07:50:54.777Z,1.35
2023-01-12T07:53:21.891Z,2.38
2023-01-12T07:55:49.216Z,1.30
2023-01-12T07:58:16.559Z,1.55
2023-01-12T08:00:43.609Z,1.60
2023-01-12T08:03:14.009Z,1.48
2023-01-12T08:05:42.541Z,1.50
2023-01-12T08:08:09.554Z,1.40
2023-01-12T08:10:36.920Z,1.55
2023-01-12T08:13:03.851Z,1.88
2023-01-12T08:15:41.703Z,1.65
2023-01-12T08:18:27.262Z,1.30
2023-01-12T08:23:32.081Z,1.63
2023-01-12T08:26:04.665Z,1.52
2023-01-12T08:28:45.512Z,2.75
2023-01-12T08:31:16.101Z,1.70
2023-01-12T08:33:44.151Z,1.70
2023-01-12T08:36:16.449Z,1.58
2023-01-12T08:38:43.781Z,1.52
2023-01-12T08:41:30.105Z,1.40
2023-01-12T08:44:03.222Z,1.50
2023-01-12T08:46:37.267Z,1.65
2023-01-12T08:49:16.837Z,1.63
2023-01-12T08:51:45.525Z,1.38
2023-01-12T08:54:15.559Z,1.55
2023-01-12T08:56:42.903Z,1.90
2023-01-12T08:59:13.626Z,1.98
2023-01-12T09:01:42.344Z,1.65
2023-01-12T09:04:09.612Z,1.40
2023-01-12T09:06:40.950Z,1.58
2023-01-12T09:09:24.288Z,1.55
2023-01-12T09:11:51.411Z,2.28
2023-01-12T09:14:19.252Z,1.55
2023-01-12T09:16:47.275Z,1.38
2023-01-12T09:19:17.625Z,1.52
2023-01-12T09:21:45.411Z,1.65
2023-01-12T09:24:14.415Z,1.10
2023-01-12T09:26:46.474Z,1.33
2023-01-12T09:29:14.784Z,1.48
2023-01-12T09:31:44.588Z,1.25
2023-01-12T09:34:11.604Z,1.35
2023-01-12T09:36:40.498Z,1.10
2023-01-12T09:39:10.277Z,0.98
2023-01-12T09:42:07.159Z,1.52
2023-01-12T09:45:03.694Z,1.20
2023-01-12T09:47:47.920Z,1.27
2023-01-12T09:50:20.248Z,1.50
2023-01-12T09:52:59.716Z,1.50
2023-01-12T09:55:38.154Z,1.30
2023-01-12T09:58:10.735Z,1.30
2023-01-12T10:00:37.709Z,0.90
2023-01-12T10:03:28.656Z,1.38
2023-01-12T10:06:00.418Z,1.70
2023-01-12T10:08:37.790Z,1.00
2023-01-12T10:11:25.846Z,1.10
2023-01-12T10:14:13.886Z,1.30
2023-01-12T10:17:15.334Z,1.50
2023-01-12T10:24:31.819Z,1.08
2023-01-12T10:27:03.798Z,1.30
2023-01-12T10:29:32.905Z,1.10
2023-01-12T10:31:59.977Z,0.98
2023-01-12T10:34:27.385Z,1.00
2023-01-12T10:37:12.776Z,1.10
2023-01-12T10:39:40.032Z,1.48
2023-01-12T10:42:38.797Z,1.20
2023-01-12T10:45:21.876Z,0.90
2023-01-12T10:48:01.576Z,1.27
2023-01-12T10:50:42.335Z,1.10
2023-01-12T10:54:35.909Z,1.30
2023-01-12T10:57:22.931Z,1.40
2023-01-12T11:00:02.488Z,0.95
2023-01-12T11:02:44.271Z,1.35
2023-01-12T11:05:38.773Z,1.00
2023-01-12T11:08:23.104Z,1.75
2023-01-12T11:10:50.642Z,0.95
2023-01-12T11:13:36.881Z,1.10
2023-01-12T11:16:35.069Z,1.60
2023-01-12T11:19:32.119Z,1.67
2023-01-12T11:22:11.289Z,3.60
2023-01-12T11:25:12.918Z,2.05
2023-01-12T11:27:52.710Z,3.80
2023-01-12T11:30:55.735Z,1.90
2023-01-12T11:33:31.397Z,1.63
2023-01-12T11:36:05.771Z,1.00
2023-01-12T11:38:41.201Z,0.95
2023-01-12T11:41:21.459Z,2.05
2023-01-12T11:47:36.584Z,0.93
2023-01-12T11:50:39.594Z,1.08
2023-01-12T11:53:26.212Z,0.98
2023-01-12T11:56:19.879Z,1.10
2023-01-12T11:59:02.048Z,0.90
2023-01-12T12:02:03.418Z,1.10
2023-01-12T12:08:44.281Z,0.68
2023-01-12T12:12:09.452Z,0.88
2023-01-12T12:15:31.216Z,0.60
2023-01-12T12:18:50.765Z,1.05
2023-01-12T12:21:46.620Z,0.60
2023-01-12T12:24:19.585Z,1.40
2023-01-12T12:27:12.359Z,0.63
2023-01-12T12:30:26.943Z,0.65
2023-01-12T12:33:18.948Z,0.82
2023-01-12T12:36:33.591Z,0.80
2023-01-12T12:39:21.436Z,0.65
2023-01-12T12:42:31.249Z,1.13
2023-01-12T12:45:39.247Z,0.90
2023-01-12T12:48:33.647Z,1.10
2023-01-12T12:51:07.236Z,0.77
2023-01-12T12:53:52.222Z,1.00
2023-01-12T12:56:27.497Z,1.80
2023-01-12T12:59:05.960Z,1.15
2023-01-12T13:01:33.288Z,0.98
2023-01-12T13:04:19.072Z,0.80
2023-01-12T13:06:50.009Z,1.08
2023-01-12T13:09:17.246Z,0.93
2023-01-12T13:11:53.960Z,0.85
2023-01-12T13:14:32.546Z,1.10
2023-01-12T13:17:18.572Z,0.70
2023-01-12T13:20:16.798Z,0.80
2023-01-12T13:22:51.727Z,0.80
2023-01-12T13:25:23.600Z,0.70
2023-01-12T13:28:19.500Z,0.63
2023-01-12T13:33:27.794Z,0.50
2023-01-12T13:36:10.203Z,0.73
2023-01-12T13:39:06.054Z,0.68
2023-01-12T13:41:56.597Z,0.70
2023-01-12T13:44:34.963Z,0.70
2023-01-12T13:47:10.285Z,0.70
2023-01-12T13:49:47.416Z,0.85
2023-01-12T13:52:35.813Z,0.98
2023-01-12T13:55:17.678Z,1.70
2023-01-12T13:58:05.196Z,1.67
2023-01-12T14:00:33.745Z,0.90
2023-01-12T14:03:03.980Z,0.70
2023-01-12T14:06:15.972Z,0.73
2023-01-12T14:09:13.485Z,0.73
2023-01-12T14:50:14.811Z,1.77
2023-01-12T14:52:46.521Z,0.90
2023-01-12T14:55:41.178Z,0.80
2023-01-12T14:58:21.111Z,1.10
2023-01-12T15:00:48.109Z,0.80
2023-01-12T15:03:31.932Z,1.10
2023-01-12T15:06:03.595Z,0.80
2023-01-12T15:08:31.221Z,0.57
2023-01-12T15:11:10.207Z,0.90
2023-01-12T15:13:38.304Z,1.25
2023-01-12T15:16:24.811Z,0.70
2023-01-12T15:19:10.249Z,0.70
2023-01-12T15:22:00.437Z,0.55
2023-01-12T15:24:49.653Z,0.73
2023-01-12T15:27:23.015Z,0.80
2023-01-12T15:29:50.830Z,0.98
2023-01-12T15:32:46.996Z,1.10
2023-01-12T15:35:35.842Z,1.20
2023-01-12T15:38:02.740Z,1.15
2023-01-12T15:40:30.106Z,0.90
2023-01-12T15:42:59.154Z,0.95
2023-01-12T15:45:58.862Z,1.00
2023-01-12T15:48:26.128Z,1.00
2023-01-12T15:50:53.255Z,0.80
2023-01-12T15:53:25.422Z,0.90
2023-01-12T15:55:52.424Z,0.70
2023-01-12T15:58:19.716Z,0.75
2023-01-12T16:00:47.250Z,0.80
2023-01-12T16:03:38.259Z,1.10
2023-01-12T16:06:02.139Z,0.63
2023-01-12T16:08:29.004Z,0.80
2023-01-12T16:11:14.218Z,1.05
2023-01-12T16:13:41.552Z,0.88
2023-01-12T16:16:16.201Z,1.10
2023-01-12T16:18:43.822Z,1.50
2023-01-12T16:21:22.555Z,1.25
2023-01-12T16:23:49.887Z,1.10
2023-01-12T16:26:16.849Z,1.02
2023-01-12T16:28:44.449Z,1.30
2023-01-12T16:31:15.116Z,0.90
2023-01-12T16:33:44.151Z,0.73
2023-01-12T16:36:13.592Z,1.40
2023-01-12T16:38:40.948Z,1.48
2023-01-12T16:41:15.631Z,1.80
2023-01-12T16:43:46.048Z,1.50
2023-01-12T16:46:19.584Z,1.30
2023-01-12T16:48:46.752Z,1.00
2023-01-12T16:51:18.694Z,1.05
2023-01-12T16:53:47.308Z,1.30
2023-01-12T16:56:16.530Z,1.35
2023-01-12T16:58:48.452Z,1.25
2023-01-12T17:01:21.159Z,1.23
2023-01-12T17:03:58.041Z,1.25
2023-01-12T17:06:28.222Z,1.30
2023-01-12T17:08:55.931Z,1.90
2023-01-12T17:11:24.486Z,1.73
2023-01-12T17:13:56.594Z,1.30
2023-01-12T17:16:26.286Z,1.35
2023-01-12T17:18:55.204Z,1.35
2023-01-12T17:21:22.803Z,1.17
2023-01-12T17:23:49.944Z,1.13
2023-01-12T17:26:28.029Z,1.42
2023-01-12T17:29:07.636Z,1.20
2023-01-12T17:31:34.936Z,1.20
2023-01-12T17:34:02.188Z,0.88
2023-01-12T17:36:30.628Z,1.15
2023-01-12T17:38:58.098Z,0.80
2023-01-12T17:41:44.234Z,0.70
2023-01-12T17:44:11.983Z,1.40
2023-01-12T17:46:38.987Z,1.20
2023-01-12T17:49:09.173Z,0.77
2023-01-12T17:51:37.375Z,0.80
2023-01-12T17:54:06.641Z,0.60
2023-01-12T17:56:35.507Z,0.75
2023-01-12T17:59:04.239Z,1.10
2023-01-12T18:01:35.455Z,1.00
2023-01-12T18:04:03.336Z,1.10
2023-01-12T18:06:31.021Z,0.75
2023-01-12T18:09:00.934Z,0.50
2023-01-12T18:11:31.142Z,0.60
2023-01-12T18:14:00.587Z,1.17
2023-01-12T18:16:28.796Z,0.70
2023-01-12T18:18:56.079Z,0.90
2023-01-12T18:21:27.107Z,1.00
2023-01-12T18:23:56.248Z,1.30
2023-01-12T18:26:27.612Z,0.70
2023-01-12T18:28:57.389Z,0.73
2023-01-12T18:31:28.866Z,0.75
2023-01-12T18:34:07.825Z,0.60
2023-01-12T18:36:40.868Z,0.50
2023-01-12T18:39:12.760Z,0.73
2023-01-12T18:42:06.147Z,0.90
2023-01-12T18:44:34.729Z,1.10
2023-01-12T18:47:22.897Z,0.85
2023-01-12T18:49:50.183Z,0.82
2023-01-12T18:52:37.291Z,0.90
2023-01-12T18:55:05.948Z,1.00
2023-01-12T18:57:35.942Z,0.77
2023-01-12T19:00:16.742Z,0.77
2023-01-12T19:02:44.996Z,0.98
2023-01-12T19:05:32.327Z,0.82
2023-01-12T19:07:59.344Z,0.77
2023-01-12T19:10:29.810Z,1.08
2023-01-12T19:13:17.485Z,0.98
2023-01-12T19:16:03.562Z,0.68
2023-01-12T19:18:30.844Z,1.10
2023-01-12T19:21:16.752Z,1.13
2023-01-12T19:24:04.692Z,1.05
2023-01-12T19:26:50.498Z,0.70
2023-01-12T19:29:17.543Z,0.93
2023-01-12T19:31:44.620Z,1.20
2023-01-12T19:34:11.549Z,0.85
2023-01-12T19:36:38.916Z,0.85
2023-01-12T19:39:07.696Z,0.73
2023-01-12T19:41:54.536Z,0.63
2023-01-12T19:44:21.798Z,0.70
2023-01-12T19:46:48.968Z,0.77
2023-01-12T19:49:17.774Z,0.77
2023-01-12T19:51:46.843Z,0.60
2023-01-12T19:54:14.102Z,0.70
2023-01-12T19:56:41.338Z,0.60
2023-01-12T19:59:10.303Z,0.70
2023-01-12T20:01:37.695Z,0.60
2023-01-12T20:04:05.034Z,0.40
2023-01-12T20:06:32.357Z,0.30
2023-01-12T20:08:59.655Z,0.70
2023-01-12T20:11:26.766Z,0.60
2023-01-12T20:13:54.056Z,0.80
2023-01-12T20:16:21.200Z,0.68
2023-01-12T20:18:48.738Z,0.40
2023-01-12T20:21:15.920Z,0.57
2023-01-12T20:23:43.046Z,0.35
2023-01-12T20:26:12.628Z,0.70
2023-01-12T20:28:40.359Z,0.35
2023-01-12T20:31:13.328Z,0.40
2023-01-12T20:33:42.321Z,0.47
2023-01-12T20:36:15.914Z,0.65
2023-01-12T20:38:46.959Z,0.63
2023-01-12T20:41:17.834Z,0.60
2023-01-12T20:43:45.372Z,0.70
2023-01-12T20:46:16.597Z,0.80
2023-01-12T20:48:45.069Z,0.50
2023-01-12T20:51:15.260Z,0.50
2023-01-12T20:53:43.618Z,0.38
2023-01-12T20:56:10.994Z,0.77
2023-01-12T20:58:37.992Z,0.30
2023-01-12T21:01:13.221Z,0.40
2023-01-12T21:03:41.397Z,0.63
2023-01-12T21:06:12.522Z,0.60
2023-01-12T21:08:40.674Z,0.50
2023-01-12T21:11:07.637Z,0.57
2023-01-12T21:13:34.866Z,1.30
2023-01-12T21:16:04.890Z,0.60
2023-01-12T21:18:32.352Z,0.45
2023-01-12T21:21:00.060Z,0.40
2023-01-12T21:23:27.737Z,0.38
2023-01-12T21:25:55.499Z,0.40
2023-01-12T21:28:23.933Z,0.50
2023-01-12T21:30:52.025Z,0.50
2023-01-12T21:33:19.151Z,0.47
2023-01-12T21:35:58.206Z,0.30
2023-01-12T21:38:26.524Z,0.30
2023-01-12T21:40:54.343Z,0.63
2023-01-12T21:43:21.890Z,0.40
2023-01-12T21:45:53.271Z,0.25
2023-01-12T21:48:23.435Z,0.40
2023-01-12T21:50:50.584Z,0.40
2023-01-12T21:53:21.550Z,0.45
2023-01-12T21:56:01.642Z,0.40
2023-01-12T21:58:32.015Z,0.65
2023-01-12T22:00:59.765Z,0.30
2023-01-12T22:03:28.794Z,0.30
2023-01-12T22:05:55.853Z,0.40
2023-01-12T22:08:22.852Z,0.35
2023-01-12T22:10:49.859Z,0.40
2023-01-12T22:13:17.683Z,0.50
2023-01-12T22:15:45.165Z,0.20
2023-01-12T22:18:12.163Z,0.32
2023-01-12T22:20:40.107Z,0.28
2023-01-12T22:23:12.543Z,0.20
2023-01-12T22:25:39.713Z,0.40
2023-01-12T22:28:06.625Z,0.50
2023-01-12T22:30:33.528Z,0.30
2023-01-12T22:33:02.812Z,0.50
2023-01-12T22:35:29.749Z,0.52
2023-01-12T22:37:57.159Z,0.43
2023-01-12T22:40:24.114Z,0.47
2023-01-12T22:43:09.469Z,0.40
2023-01-12T22:45:37.461Z,0.20
2023-01-12T22:48:04.944Z,0.30
2023-01-12T22:50:35.163Z,0.38
2023-01-12T22:53:02.508Z,0.40
2023-01-12T22:55:29.580Z,0.28
2023-01-12T22:57:56.479Z,0.43
2023-01-12T23:00:23.539Z,0.28
2023-01-12T23:02:59.883Z,0.40
2023-01-12T23:05:35.560Z,0.40
2023-01-12T23:08:06.044Z,0.20
2023-01-12T23:10:34.404Z,0.55
2023-01-12T23:13:20.319Z,0.28
2023-01-12T23:15:55.704Z,0.30
2023-01-12T23:18:29.247Z,0.40
2023-01-12T23:21:15.547Z,0.38
2023-01-12T23:23:57.969Z,1.80
2023-01-12T23:26:31.857Z,0.30
2023-01-12T23:29:01.067Z,0.35
2023-01-12T23:31:32.624Z,0.30
2023-01-12T23:33:59.850Z,0.30
2023-01-12T23:36:29.322Z,0.20
2023-01-12T23:39:04.106Z,0.20
2023-01-12T23:41:34.729Z,0.30
2023-01-12T23:44:05.568Z,0.38
2023-01-12T23:46:39.335Z,0.47
2023-01-12T23:49:06.582Z,0.30
2023-01-12T23:51:33.868Z,0.30
2023-01-12T23:54:02.768Z,0.30
2023-01-12T23:56:33.420Z,0.28
2023-01-12T23:59:00.711Z,0.50
